createdAt,value
2023-01-06T00:00:19.109Z,100534.38
2023-01-06T00:01:21.065Z,100530.06
2023-01-06T00:02:23.475Z,100539.78
2023-01-06T00:03:25.349Z,100522.38
2023-01-06T00:04:27.830Z,100537.06
2023-01-06T00:05:30.267Z,100537.06
2023-01-06T00:06:32.631Z,100528.41
2023-01-06T00:07:34.680Z,100507.94
2023-01-06T00:08:37.423Z,100531.94
2023-01-06T00:09:39.279Z,100532.75
2023-01-06T00:10:41.809Z,100526.66
2023-01-06T00:11:43.750Z,100527.44
2023-01-06T00:12:47.397Z,100521.00
2023-01-06T00:13:49.321Z,100534.66
2023-01-06T00:14:50.962Z,100528.63
2023-01-06T00:15:52.903Z,100516.44
2023-01-06T00:16:54.640Z,100530.31
2023-01-06T00:17:56.304Z,100513.84
2023-01-06T00:18:59.744Z,100543.53
2023-01-06T00:20:01.546Z,100527.59
2023-01-06T00:21:04.462Z,100518.13
2023-01-06T00:22:07.583Z,100521.53
2023-01-06T00:23:09.773Z,100519.91
2023-01-06T00:24:11.953Z,100500.16
2023-01-06T00:25:13.803Z,100513.69
2023-01-06T00:26:15.898Z,100516.31
2023-01-06T00:27:18.057Z,100507.06
2023-01-06T00:28:19.649Z,100489.13
2023-01-06T00:29:23.069Z,100484.59
2023-01-06T00:30:25.179Z,100487.13
2023-01-06T00:31:26.972Z,100510.38
2023-01-06T00:32:31.366Z,100502.69
2023-01-06T00:33:33.130Z,100514.91
2023-01-06T00:34:35.037Z,100503.78
2023-01-06T00:35:36.835Z,100508.19
2023-01-06T00:36:38.475Z,100497.97
2023-01-06T00:37:40.139Z,100493.69
2023-01-06T00:38:41.921Z,100492.06
2023-01-06T00:39:43.836Z,100484.38
2023-01-06T00:40:45.813Z,100503.31
2023-01-06T00:42:06.889Z,100497.31
2023-01-06T00:43:09.534Z,100504.22
2023-01-06T00:44:11.414Z,100506.88
2023-01-06T00:45:13.227Z,100487.09
2023-01-06T00:46:15.706Z,100505.16
2023-01-06T00:47:17.686Z,100500.94
2023-01-06T00:48:19.336Z,100477.84
2023-01-06T00:49:21.441Z,100479.47
2023-01-06T00:50:23.237Z,100484.59
2023-01-06T00:51:26.379Z,100494.06
2023-01-06T00:52:28.077Z,100501.91
2023-01-06T00:53:29.554Z,100486.44
2023-01-06T00:54:31.261Z,100492.53
2023-01-06T00:55:33.884Z,100509.75
2023-01-06T00:56:40.701Z,100481.47
2023-01-06T00:57:42.597Z,100497.75
2023-01-06T00:58:44.202Z,100485.53
2023-01-06T00:59:48.273Z,100487.34
2023-01-06T01:00:50.224Z,100472.69
2023-01-06T01:01:54.553Z,100488.84
2023-01-06T01:02:56.491Z,100489.00
2023-01-06T01:03:58.600Z,100497.53
2023-01-06T01:05:00.842Z,100492.22
2023-01-06T01:06:04.453Z,100471.63
2023-01-06T01:07:06.102Z,100494.00
2023-01-06T01:08:08.008Z,100485.25
2023-01-06T01:09:14.838Z,100492.25
2023-01-06T01:10:17.140Z,100487.88
2023-01-06T01:11:37.320Z,100479.38
2023-01-06T01:12:39.531Z,100491.44
2023-01-06T01:13:41.441Z,100480.41
2023-01-06T01:14:49.417Z,100488.09
2023-01-06T01:15:52.010Z,100489.84
2023-01-06T01:16:54.240Z,100477.72
2023-01-06T01:17:56.499Z,100481.34
2023-01-06T01:18:59.330Z,100492.53
2023-01-06T01:20:01.314Z,100482.41
2023-01-06T01:21:03.491Z,100491.84
2023-01-06T01:22:07.040Z,100477.34
2023-01-06T01:23:08.611Z,100480.03
2023-01-06T01:24:11.210Z,100492.69
2023-01-06T01:25:12.864Z,100494.34
2023-01-06T01:26:15.071Z,100491.78
2023-01-06T01:27:18.004Z,100496.13
2023-01-06T01:28:19.939Z,100492.59
2023-01-06T01:29:21.908Z,100498.63
2023-01-06T01:30:24.088Z,100491.59
2023-01-06T01:31:25.678Z,100496.63
2023-01-06T01:32:28.734Z,100465.13
2023-01-06T01:33:31.302Z,100490.53
2023-01-06T01:34:34.482Z,100481.00
2023-01-06T01:35:36.209Z,100497.28
2023-01-06T01:36:38.355Z,100486.13
2023-01-06T01:37:40.020Z,100492.09
2023-01-06T01:38:42.515Z,100504.06
2023-01-06T01:39:44.951Z,100491.81
2023-01-06T01:40:50.201Z,100493.75
2023-01-06T01:41:54.830Z,100489.41
2023-01-06T01:42:56.567Z,100486.91
2023-01-06T01:44:04.310Z,100497.97
2023-01-06T01:45:07.959Z,100502.25
2023-01-06T01:46:13.549Z,100497.91
2023-01-06T01:47:40.273Z,100491.78
2023-01-06T01:48:42.588Z,100488.50
2023-01-06T01:49:48.472Z,100482.66
2023-01-06T01:50:53.499Z,100491.72
2023-01-06T01:51:57.514Z,100490.25
2023-01-06T01:53:07.570Z,100488.25
2023-01-06T01:54:14.586Z,100494.28
2023-01-06T01:55:17.987Z,100500.28
2023-01-06T01:56:25.201Z,100481.47
2023-01-06T01:57:36.928Z,100484.03
2023-01-06T01:58:45.292Z,100489.03
2023-01-06T01:59:47.828Z,100478.06
2023-01-06T02:00:51.883Z,100488.25
2023-01-06T02:01:55.885Z,100470.22
2023-01-06T02:02:58.753Z,100502.09
2023-01-06T02:04:01.445Z,100489.91
2023-01-06T02:05:03.660Z,100492.53
2023-01-06T02:06:23.051Z,100486.44
2023-01-06T02:07:27.231Z,100471.84
2023-01-06T02:08:52.996Z,100482.16
2023-01-06T02:10:00.625Z,100480.53
2023-01-06T02:11:03.522Z,100482.22
2023-01-06T02:12:06.367Z,100475.28
2023-01-06T02:13:08.182Z,100461.72
2023-01-06T02:14:14.133Z,100473.50
2023-01-06T02:15:25.124Z,100426.38
2023-01-06T02:16:39.060Z,100472.44
2023-01-06T02:17:59.771Z,100459.47
2023-01-06T02:19:04.333Z,100481.63
2023-01-06T02:20:16.967Z,100474.53
2023-01-06T02:21:30.895Z,100480.63
2023-01-06T02:22:50.501Z,100480.63
2023-01-06T02:24:10.490Z,100468.34
2023-01-06T02:25:27.790Z,100481.34
2023-01-06T02:26:48.474Z,100481.22
2023-01-06T02:28:08.724Z,100476.84
2023-01-06T02:29:50.441Z,100482.88
2023-01-06T02:31:11.040Z,100478.28
2023-01-06T02:32:26.053Z,100476.53
2023-01-06T02:33:38.333Z,100479.06
2023-01-06T02:34:45.717Z,100466.78
2023-01-06T02:36:00.331Z,100466.59
2023-01-06T02:37:26.982Z,100467.59
2023-01-06T02:38:35.203Z,100479.19
2023-01-06T02:40:14.649Z,100468.28
2023-01-06T02:41:34.339Z,100467.09
2023-01-06T02:42:36.058Z,100466.69
2023-01-06T02:43:56.705Z,100476.13
2023-01-06T02:45:19.915Z,100464.81
2023-01-06T02:46:28.313Z,100467.63
2023-01-06T02:47:35.449Z,100463.47
2023-01-06T02:48:55.044Z,100471.25
2023-01-06T02:50:10.379Z,100470.41
2023-01-06T02:51:24.619Z,100466.88
2023-01-06T02:52:43.162Z,100479.88
2023-01-06T02:53:58.956Z,100473.94
2023-01-06T02:55:23.915Z,100480.16
2023-01-06T02:56:34.218Z,100475.88
2023-01-06T02:58:01.950Z,100483.09
2023-01-06T02:59:10.693Z,100482.38
2023-01-06T03:00:27.430Z,100472.63
2023-01-06T03:01:36.885Z,100470.44
2023-01-06T03:02:41.550Z,100491.16
2023-01-06T03:03:48.230Z,100486.31
2023-01-06T03:04:52.621Z,100481.25
2023-01-06T03:06:05.185Z,100478.84
2023-01-06T03:07:08.204Z,100491.19
2023-01-06T03:08:17.492Z,100497.38
2023-01-06T03:09:22.564Z,100487.53
2023-01-06T03:10:27.227Z,100495.13
2023-01-06T03:11:32.297Z,100500.47
2023-01-06T03:12:45.051Z,100498.84
2023-01-06T03:13:53.426Z,100496.56
2023-01-06T03:14:56.380Z,100495.69
2023-01-06T03:15:58.239Z,100506.09
2023-01-06T03:17:00.902Z,100494.03
2023-01-06T03:18:03.715Z,100499.34
2023-01-06T03:19:06.618Z,100477.13
2023-01-06T03:20:09.329Z,100484.06
2023-01-06T03:21:18.721Z,100497.16
2023-01-06T03:22:22.380Z,100495.47
2023-01-06T03:23:24.179Z,100497.31
2023-01-06T03:24:26.371Z,100493.97
2023-01-06T03:25:28.318Z,100474.59
2023-01-06T03:26:30.516Z,100475.31
2023-01-06T03:27:32.219Z,100481.50
2023-01-06T03:28:33.859Z,100503.81
2023-01-06T03:29:37.236Z,100501.44
2023-01-06T03:30:51.045Z,100507.56
2023-01-06T03:32:09.731Z,100502.44
2023-01-06T03:33:32.065Z,100513.00
2023-01-06T03:34:39.456Z,100503.50
2023-01-06T03:36:02.572Z,100513.16
2023-01-06T03:37:13.152Z,100501.97
2023-01-06T03:38:33.405Z,100501.16
2023-01-06T03:40:11.118Z,100501.84
2023-01-06T03:41:49.260Z,100485.63
2023-01-06T03:43:16.747Z,100488.25
2023-01-06T03:44:37.360Z,100494.53
2023-01-06T03:46:20.588Z,100497.97
2023-01-06T03:47:46.385Z,100498.09
2023-01-06T03:49:13.782Z,100482.56
2023-01-06T03:50:26.040Z,100494.63
2023-01-06T03:51:39.857Z,100499.78
2023-01-06T03:52:49.692Z,100512.03
2023-01-06T03:54:09.655Z,100505.00
2023-01-06T03:55:18.128Z,100488.53
2023-01-06T03:56:31.897Z,100500.56
2023-01-06T03:57:43.128Z,100494.44
2023-01-06T03:58:49.316Z,100492.75
2023-01-06T03:59:57.616Z,100486.66
2023-01-06T04:01:00.556Z,100483.16
2023-01-06T04:02:03.162Z,100488.16
2023-01-06T04:03:11.797Z,100507.34
2023-01-06T04:04:13.879Z,100493.47
2023-01-06T04:05:21.501Z,100493.41
2023-01-06T04:06:23.433Z,100471.03
2023-01-06T04:07:26.777Z,100501.25
2023-01-06T04:08:29.465Z,100484.84
2023-01-06T04:09:31.311Z,100488.38
2023-01-06T04:10:33.404Z,100489.03
2023-01-06T04:11:54.064Z,100474.47
2023-01-06T04:12:55.832Z,100479.81
2023-01-06T04:13:57.823Z,100478.06
2023-01-06T04:15:00.056Z,100485.13
2023-01-06T04:16:01.967Z,100483.41
2023-01-06T04:17:04.929Z,100490.34
2023-01-06T04:18:06.892Z,100473.97
2023-01-06T04:19:08.569Z,100476.63
2023-01-06T04:20:24.842Z,100480.03
2023-01-06T04:21:26.746Z,100478.28
2023-01-06T04:22:28.688Z,100494.81
2023-01-06T04:23:33.887Z,100474.00
2023-01-06T04:24:36.972Z,100484.31
2023-01-06T04:25:38.707Z,100481.63
2023-01-06T04:26:40.561Z,100486.06
2023-01-06T04:27:43.562Z,100483.59
2023-01-06T04:28:45.455Z,100457.78
2023-01-06T04:29:49.175Z,100480.88
2023-01-06T04:30:51.143Z,100485.25
2023-01-06T04:31:52.963Z,100485.28
2023-01-06T04:32:54.624Z,100480.03
2023-01-06T04:33:56.313Z,100478.25
2023-01-06T04:34:58.028Z,100463.00
2023-01-06T04:36:00.598Z,100479.88
2023-01-06T04:37:03.316Z,100466.41
2023-01-06T04:38:04.854Z,100479.25
2023-01-06T04:39:06.793Z,100484.41
2023-01-06T04:40:10.209Z,100481.00
2023-01-06T04:41:12.292Z,100458.63
2023-01-06T04:42:15.537Z,100458.63
2023-01-06T04:43:18.500Z,100466.31
2023-01-06T04:44:21.396Z,100466.09
2023-01-06T04:45:23.600Z,100470.53
2023-01-06T04:46:25.351Z,100454.13
2023-01-06T04:47:27.161Z,100453.25
2023-01-06T04:48:29.278Z,100452.53
2023-01-06T04:49:31.254Z,100433.69
2023-01-06T04:50:33.243Z,100448.91
2023-01-06T04:51:36.077Z,100461.13
2023-01-06T04:52:38.238Z,100438.81
2023-01-06T04:53:41.252Z,100434.41
2023-01-06T04:54:42.911Z,100444.72
2023-01-06T04:55:44.680Z,100445.53
2023-01-06T04:56:46.469Z,100428.34
2023-01-06T04:57:48.357Z,100451.66
2023-01-06T04:58:55.437Z,100450.00
2023-01-06T04:59:57.349Z,100444.00
2023-01-06T05:01:05.703Z,100445.72
2023-01-06T05:02:07.559Z,100444.91
2023-01-06T05:03:09.419Z,100438.94
2023-01-06T05:04:11.192Z,100447.66
2023-01-06T05:05:14.170Z,100444.16
2023-01-06T05:06:16.076Z,100439.91
2023-01-06T05:07:18.028Z,100425.22
2023-01-06T05:08:19.948Z,100432.97
2023-01-06T05:09:21.698Z,100423.47
2023-01-06T05:10:23.492Z,100428.63
2023-01-06T05:11:26.751Z,100442.56
2023-01-06T05:12:28.345Z,100423.63
2023-01-06T05:13:33.282Z,100434.78
2023-01-06T05:14:34.846Z,100430.53
2023-01-06T05:15:36.852Z,100412.44
2023-01-06T05:16:39.868Z,100434.91
2023-01-06T05:17:42.118Z,100418.53
2023-01-06T05:18:44.339Z,100433.06
2023-01-06T05:19:46.493Z,100434.06
2023-01-06T05:20:55.553Z,100425.41
2023-01-06T05:21:57.404Z,100429.63
2023-01-06T05:22:58.994Z,100436.56
2023-01-06T05:24:01.086Z,100434.00
2023-01-06T05:25:02.842Z,100430.50
2023-01-06T05:26:06.502Z,100435.72
2023-01-06T05:27:08.631Z,100429.63
2023-01-06T05:28:13.920Z,100433.13
2023-01-06T05:29:17.645Z,100425.34
2023-01-06T05:30:19.256Z,100424.75
2023-01-06T05:31:21.361Z,100429.63
2023-01-06T05:32:24.241Z,100414.16
2023-01-06T05:33:26.668Z,100427.88
2023-01-06T05:34:28.649Z,100420.19
2023-01-06T05:35:30.726Z,100438.34
2023-01-06T05:36:33.070Z,100430.53
2023-01-06T05:37:35.920Z,100423.69
2023-01-06T05:38:37.880Z,100429.78
2023-01-06T05:39:39.751Z,100420.31
2023-01-06T05:40:41.414Z,100421.75
2023-01-06T05:41:43.061Z,100414.03
2023-01-06T05:42:44.951Z,100408.78
2023-01-06T05:43:46.681Z,100412.16
2023-01-06T05:44:50.037Z,100430.38
2023-01-06T05:45:52.458Z,100430.38
2023-01-06T05:46:54.198Z,100408.97
2023-01-06T05:47:56.355Z,100426.09
2023-01-06T05:48:59.995Z,100433.06
2023-01-06T05:50:03.284Z,100435.66
2023-01-06T05:51:07.670Z,100437.47
2023-01-06T05:52:09.292Z,100433.94
2023-01-06T05:53:11.154Z,100433.94
2023-01-06T05:54:14.137Z,100440.91
2023-01-06T05:55:15.813Z,100422.03
2023-01-06T05:56:19.899Z,100444.28
2023-01-06T05:57:21.685Z,100439.00
2023-01-06T05:58:23.260Z,100426.94
2023-01-06T05:59:25.245Z,100446.56
2023-01-06T06:00:27.538Z,100431.03
2023-01-06T06:01:31.756Z,100429.31
2023-01-06T06:02:33.413Z,100434.22
2023-01-06T06:03:35.150Z,100433.38
2023-01-06T06:04:36.914Z,100427.34
2023-01-06T06:05:38.832Z,100425.59
2023-01-06T06:06:40.509Z,100449.66
2023-01-06T06:07:43.479Z,100444.41
2023-01-06T06:08:46.278Z,100430.69
2023-01-06T06:09:48.128Z,100433.31
2023-01-06T06:10:50.392Z,100438.31
2023-01-06T06:11:54.159Z,100418.56
2023-01-06T06:12:55.804Z,100448.59
2023-01-06T06:13:58.840Z,100451.28
2023-01-06T06:15:04.481Z,100442.59
2023-01-06T06:16:08.515Z,100459.91
2023-01-06T06:17:10.076Z,100465.06
2023-01-06T06:18:13.278Z,100461.72
2023-01-06T06:19:15.130Z,100454.75
2023-01-06T06:20:16.983Z,100471.19
2023-01-06T06:21:23.068Z,100475.56
2023-01-06T06:22:25.149Z,100467.75
2023-01-06T06:23:27.580Z,100472.13
2023-01-06T06:24:29.441Z,100470.47
2023-01-06T06:25:31.736Z,100477.44
2023-01-06T06:26:33.497Z,100470.56
2023-01-06T06:27:37.420Z,100480.88
2023-01-06T06:28:40.576Z,100483.50
2023-01-06T06:29:42.699Z,100472.34
2023-01-06T06:30:44.492Z,100483.75
2023-01-06T06:31:46.399Z,100496.66
2023-01-06T06:32:48.118Z,100495.13
2023-01-06T06:33:56.037Z,100496.69
2023-01-06T06:34:59.380Z,100514.91
2023-01-06T06:36:02.140Z,100498.38
2023-01-06T06:37:05.286Z,100487.34
2023-01-06T06:38:07.246Z,100484.03
2023-01-06T06:39:09.672Z,100508.00
2023-01-06T06:40:12.457Z,100503.69
2023-01-06T06:41:16.060Z,100484.16
2023-01-06T06:42:17.960Z,100501.25
2023-01-06T06:43:19.689Z,100510.81
2023-01-06T06:44:21.322Z,100514.16
2023-01-06T06:45:23.160Z,100511.53
2023-01-06T06:46:24.850Z,100497.06
2023-01-06T06:47:26.596Z,100509.94
2023-01-06T06:48:29.863Z,100518.88
2023-01-06T06:49:32.149Z,100504.25
2023-01-06T06:50:34.551Z,100518.78
2023-01-06T06:51:37.024Z,100505.94
2023-01-06T06:52:39.348Z,100529.25
2023-01-06T06:53:41.567Z,100552.97
2023-01-06T06:54:45.305Z,100539.16
2023-01-06T06:55:46.905Z,100525.47
2023-01-06T06:56:48.613Z,100533.44
2023-01-06T06:57:50.555Z,100532.53
2023-01-06T06:58:52.830Z,100525.75
2023-01-06T06:59:54.636Z,100524.31
2023-01-06T07:00:56.458Z,100517.34
2023-01-06T07:01:58.553Z,100537.25
2023-01-06T07:03:02.681Z,100533.72
2023-01-06T07:04:04.751Z,100524.31
2023-01-06T07:05:07.489Z,100535.81
2023-01-06T07:06:13.770Z,100528.00
2023-01-06T07:07:17.295Z,100528.75
2023-01-06T07:08:19.905Z,100542.66
2023-01-06T07:09:21.581Z,100537.59
2023-01-06T07:10:23.544Z,100540.09
2023-01-06T07:11:25.548Z,100521.16
2023-01-06T07:12:27.198Z,100536.69
2023-01-06T07:13:29.438Z,100518.72
2023-01-06T07:14:31.406Z,100535.00
2023-01-06T07:15:33.855Z,100536.69
2023-01-06T07:16:36.833Z,100518.66
2023-01-06T07:17:39.705Z,100526.47
2023-01-06T07:18:41.443Z,100538.34
2023-01-06T07:19:43.341Z,100539.28
2023-01-06T07:20:53.798Z,100528.09
2023-01-06T07:21:57.302Z,100523.75
2023-01-06T07:23:00.923Z,100526.38
2023-01-06T07:24:02.493Z,100523.00
2023-01-06T07:25:05.340Z,100542.72
2023-01-06T07:26:07.435Z,100550.56
2023-01-06T07:27:10.248Z,100538.53
2023-01-06T07:28:12.482Z,100549.06
2023-01-06T07:29:14.296Z,100531.09
2023-01-06T07:30:16.436Z,100557.69
2023-01-06T07:31:18.689Z,100547.56
2023-01-06T07:32:21.998Z,100556.81
2023-01-06T07:33:24.109Z,100544.88
2023-01-06T07:34:26.094Z,100559.38
2023-01-06T07:35:27.968Z,100560.25
2023-01-06T07:36:29.579Z,100545.75
2023-01-06T07:37:31.327Z,100544.94
2023-01-06T07:38:33.090Z,100546.63
2023-01-06T07:39:34.853Z,100569.88
2023-01-06T07:40:37.487Z,100566.41
2023-01-06T07:41:39.196Z,100558.00
2023-01-06T07:42:40.855Z,100544.25
2023-01-06T07:43:43.015Z,100567.44
2023-01-06T07:44:44.706Z,100555.44
2023-01-06T07:45:48.924Z,100571.09
2023-01-06T07:46:51.314Z,100544.31
2023-01-06T07:47:55.558Z,100557.94
2023-01-06T07:48:57.257Z,100552.03
2023-01-06T07:49:59.002Z,100563.94
2023-01-06T07:51:03.475Z,100553.75
2023-01-06T07:52:09.282Z,100528.81
2023-01-06T07:53:11.907Z,100560.53
2023-01-06T07:54:13.621Z,100565.75
2023-01-06T07:55:15.257Z,100569.00
2023-01-06T07:56:17.471Z,100571.66
2023-01-06T07:57:19.182Z,100568.03
2023-01-06T07:58:21.667Z,100557.88
2023-01-06T07:59:23.637Z,100563.84
2023-01-06T08:00:25.766Z,100558.69
2023-01-06T08:01:27.473Z,100571.69
2023-01-06T08:02:29.430Z,100559.66
2023-01-06T08:03:32.064Z,100553.63
2023-01-06T08:04:36.818Z,100570.69
2023-01-06T08:05:41.901Z,100558.72
2023-01-06T08:06:47.037Z,100562.91
2023-01-06T08:07:49.113Z,100545.00
2023-01-06T08:08:51.148Z,100540.75
2023-01-06T08:09:52.967Z,100517.53
2023-01-06T08:10:58.483Z,100566.28
2023-01-06T08:12:01.429Z,100566.16
2023-01-06T08:13:04.214Z,100576.47
2023-01-06T08:14:06.110Z,100576.28
2023-01-06T08:15:09.071Z,100563.16
2023-01-06T08:16:12.016Z,100576.91
2023-01-06T08:17:15.125Z,100577.72
2023-01-06T08:18:16.700Z,100581.06
2023-01-06T08:19:18.316Z,100578.31
2023-01-06T08:20:22.460Z,100576.53
2023-01-06T08:21:24.917Z,100572.38
2023-01-06T08:22:26.913Z,100561.34
2023-01-06T08:23:30.681Z,100575.22
2023-01-06T08:24:33.114Z,100565.66
2023-01-06T08:25:34.829Z,100584.56
2023-01-06T08:26:36.509Z,100573.31
2023-01-06T08:27:38.322Z,100587.25
2023-01-06T08:28:44.475Z,100586.28
2023-01-06T08:29:47.023Z,100568.28
2023-01-06T08:30:49.159Z,100578.81
2023-01-06T08:31:54.763Z,100582.94
2023-01-06T08:33:00.217Z,100580.22
2023-01-06T08:34:02.206Z,100582.97
2023-01-06T08:35:04.958Z,100582.94
2023-01-06T08:36:09.056Z,100593.22
2023-01-06T08:37:10.799Z,100594.03
2023-01-06T08:38:12.610Z,100590.34
2023-01-06T08:39:15.084Z,100591.88
2023-01-06T08:40:17.103Z,100582.19
2023-01-06T08:41:19.508Z,100587.34
2023-01-06T08:42:21.240Z,100587.34
2023-01-06T08:43:23.682Z,100586.28
2023-01-06T08:44:26.167Z,100577.28
2023-01-06T08:45:27.776Z,100578.81
2023-01-06T08:46:29.625Z,100572.50
2023-01-06T08:47:32.332Z,100588.72
2023-01-06T08:48:35.436Z,100580.84
2023-01-06T08:49:37.450Z,100577.47
2023-01-06T08:50:40.648Z,100592.78
2023-01-06T08:51:42.825Z,100586.78
2023-01-06T08:52:44.829Z,100590.97
2023-01-06T08:53:47.814Z,100578.41
2023-01-06T08:54:49.527Z,100592.94
2023-01-06T08:55:52.540Z,100588.44
2023-01-06T08:56:54.707Z,100590.78
2023-01-06T08:57:56.888Z,100608.22
2023-01-06T08:59:01.565Z,100599.47
2023-01-06T09:00:06.049Z,100602.22
2023-01-06T09:01:15.645Z,100601.94
2023-01-06T09:02:17.539Z,100590.56
2023-01-06T09:03:20.027Z,100593.53
2023-01-06T09:04:21.823Z,100593.66
2023-01-06T09:05:24.376Z,100608.50
2023-01-06T09:06:26.783Z,100594.25
2023-01-06T09:07:29.945Z,100582.41
2023-01-06T09:08:31.711Z,100605.94
2023-01-06T09:09:34.051Z,100600.44
2023-01-06T09:10:38.956Z,100599.06
2023-01-06T09:11:42.810Z,100602.97
2023-01-06T09:12:45.834Z,100592.19
2023-01-06T09:13:47.646Z,100589.72
2023-01-06T09:14:49.790Z,100606.59
2023-01-06T09:15:53.005Z,100610.69
2023-01-06T09:16:54.935Z,100589.81
2023-01-06T09:17:56.855Z,100601.84
2023-01-06T09:18:58.775Z,100601.81
2023-01-06T09:20:01.001Z,100595.38
2023-01-06T09:21:03.131Z,100579.09
2023-01-06T09:22:05.127Z,100609.25
2023-01-06T09:23:06.914Z,100602.59
2023-01-06T09:24:14.178Z,100616.41
2023-01-06T09:25:17.362Z,100594.56
2023-01-06T09:26:22.496Z,100614.81
2023-01-06T09:27:24.374Z,100623.63
2023-01-06T09:28:26.807Z,100609.66
2023-01-06T09:29:29.331Z,100606.69
2023-01-06T09:30:31.402Z,100614.19
2023-01-06T09:31:34.644Z,100614.25
2023-01-06T09:32:37.607Z,100618.66
2023-01-06T09:33:40.104Z,100616.47
2023-01-06T09:34:42.762Z,100616.91
2023-01-06T09:35:46.014Z,100619.03
2023-01-06T09:36:48.004Z,100607.56
2023-01-06T09:37:50.281Z,100616.66
2023-01-06T09:38:51.926Z,100585.94
2023-01-06T09:39:53.651Z,100613.97
2023-01-06T09:40:58.047Z,100612.91
2023-01-06T09:42:32.671Z,100617.25
2023-01-06T09:43:46.870Z,100607.34
2023-01-06T09:44:58.525Z,100613.13
2023-01-06T09:46:03.904Z,100620.28
2023-01-06T09:47:09.386Z,100581.53
2023-01-06T09:48:21.841Z,100598.41
2023-01-06T09:49:37.752Z,100616.66
2023-01-06T09:50:51.201Z,100610.00
2023-01-06T09:51:57.431Z,100610.53
2023-01-06T09:53:03.729Z,100610.63
2023-01-06T09:54:17.601Z,100599.38
2023-01-06T09:55:43.261Z,100615.75
2023-01-06T09:56:49.187Z,100600.19
2023-01-06T09:57:59.074Z,100597.75
2023-01-06T09:59:28.175Z,100598.78
2023-01-06T10:00:38.812Z,100595.66
2023-01-06T10:01:46.589Z,100592.94
2023-01-06T10:02:49.511Z,100526.84
2023-01-06T10:03:51.395Z,100573.16
2023-01-06T10:04:53.630Z,100578.19
2023-01-06T10:06:25.324Z,100585.03
2023-01-06T10:07:36.647Z,100582.34
2023-01-06T10:09:06.671Z,100592.19
2023-01-06T10:10:38.585Z,100588.66
2023-01-06T10:11:57.873Z,100585.19
2023-01-06T10:13:15.686Z,100568.84
2023-01-06T10:14:26.240Z,100589.00
2023-01-06T10:15:40.015Z,100581.09
2023-01-06T10:16:52.418Z,100587.09
2023-01-06T10:18:09.561Z,100558.69
2023-01-06T10:19:34.638Z,100582.69
2023-01-06T10:20:36.631Z,100575.91
2023-01-06T10:21:41.222Z,100575.22
2023-01-06T10:23:20.849Z,100578.06
2023-01-06T10:24:42.823Z,100555.44
2023-01-06T10:25:54.253Z,100571.03
2023-01-06T10:27:08.983Z,100565.75
2023-01-06T10:28:30.172Z,100569.75
2023-01-06T10:29:35.791Z,100566.50
2023-01-06T10:30:45.587Z,100550.19
2023-01-06T10:31:49.408Z,100556.81
2023-01-06T10:32:51.749Z,100574.25
2023-01-06T10:33:55.541Z,100545.13
2023-01-06T10:34:59.833Z,100548.56
2023-01-06T10:36:01.638Z,100554.81
2023-01-06T10:37:39.858Z,100570.13
2023-01-06T10:38:45.221Z,100558.00
2023-01-06T10:39:50.645Z,100581.16
2023-01-06T10:40:56.249Z,100568.22
2023-01-06T10:42:54.605Z,100578.06
2023-01-06T10:43:57.754Z,100578.63
2023-01-06T10:44:59.458Z,100574.41
2023-01-06T10:46:01.233Z,100567.34
2023-01-06T10:47:04.136Z,100562.38
2023-01-06T10:48:11.407Z,100590.38
2023-01-06T10:49:18.716Z,100573.59
2023-01-06T10:50:20.912Z,100557.41
2023-01-06T10:51:45.870Z,100566.25
2023-01-06T10:52:51.146Z,100566.88
2023-01-06T10:53:53.145Z,100567.91
2023-01-06T10:55:00.629Z,100562.97
2023-01-06T10:56:04.369Z,100557.75
2023-01-06T10:57:24.346Z,100563.34
2023-01-06T10:59:03.953Z,100565.72
2023-01-06T11:00:08.966Z,100567.19
2023-01-06T11:01:15.912Z,100545.47
2023-01-06T11:02:24.005Z,100553.47
2023-01-06T11:03:35.068Z,100561.66
2023-01-06T11:04:51.663Z,100575.84
2023-01-06T11:06:02.068Z,100563.97
2023-01-06T11:07:07.298Z,100550.16
2023-01-06T11:08:16.529Z,100547.19
2023-01-06T11:09:45.991Z,100557.00
2023-01-06T11:10:50.604Z,100554.47
2023-01-06T11:11:54.983Z,100544.97
2023-01-06T11:13:00.035Z,100552.53
2023-01-06T11:14:06.767Z,100561.03
2023-01-06T11:15:09.109Z,100548.25
2023-01-06T11:16:25.921Z,100540.84
2023-01-06T11:17:30.291Z,100533.53
2023-01-06T11:18:34.769Z,100545.00
2023-01-06T11:19:38.254Z,100552.34
2023-01-06T11:20:40.271Z,100557.94
2023-01-06T11:21:45.751Z,100546.91
2023-01-06T11:22:48.463Z,100537.53
2023-01-06T11:23:50.231Z,100534.41
2023-01-06T11:24:54.501Z,100546.13
2023-01-06T11:26:06.993Z,100545.31
2023-01-06T11:27:16.754Z,100549.06
2023-01-06T11:28:21.210Z,100524.88
2023-01-06T11:29:25.347Z,100543.03
2023-01-06T11:30:28.872Z,100550.59
2023-01-06T11:31:30.912Z,100556.38
2023-01-06T11:32:32.619Z,100538.50
2023-01-06T11:33:38.346Z,100528.16
2023-01-06T11:34:48.856Z,100554.59
2023-01-06T11:35:52.488Z,100571.19
2023-01-06T11:36:54.926Z,100528.56
2023-01-06T11:37:59.065Z,100545.72
2023-01-06T11:39:03.926Z,100515.25
2023-01-06T11:40:21.256Z,100549.84
2023-01-06T11:41:31.436Z,100542.63
2023-01-06T11:42:33.466Z,100524.09
2023-01-06T11:43:35.674Z,100522.81
2023-01-06T11:44:45.613Z,100543.81
2023-01-06T11:45:55.172Z,100511.66
2023-01-06T11:47:19.272Z,100530.28
2023-01-06T11:48:26.517Z,100528.47
2023-01-06T11:49:56.257Z,100529.53
2023-01-06T11:51:01.074Z,100520.91
2023-01-06T11:52:07.550Z,100528.50
2023-01-06T11:53:18.176Z,100524.47
2023-01-06T11:54:25.325Z,100522.56
2023-01-06T11:55:31.182Z,100516.00
2023-01-06T11:56:34.045Z,100528.34
2023-01-06T11:58:02.187Z,100517.59
2023-01-06T11:59:04.143Z,100521.75
2023-01-06T12:00:36.932Z,100517.78
2023-01-06T12:02:00.511Z,100511.94
2023-01-06T12:03:11.056Z,100513.53
2023-01-06T12:04:22.368Z,100518.16
2023-01-06T12:05:51.766Z,100520.66
2023-01-06T12:07:02.632Z,100503.75
2023-01-06T12:08:14.655Z,100526.41
2023-01-06T12:09:24.901Z,100507.41
2023-01-06T12:10:32.243Z,100505.06
2023-01-06T12:11:42.980Z,100511.69
2023-01-06T12:12:45.598Z,100511.75
2023-01-06T12:14:08.306Z,100525.09
2023-01-06T12:15:17.853Z,100513.75
2023-01-06T12:16:38.179Z,100507.66
2023-01-06T12:17:50.914Z,100516.03
2023-01-06T12:18:53.293Z,100528.94
2023-01-06T12:20:01.488Z,100512.53
2023-01-06T12:21:04.682Z,100500.16
2023-01-06T12:22:18.792Z,100483.56
2023-01-06T12:23:37.517Z,100499.88
2023-01-06T12:24:41.915Z,100493.50
2023-01-06T12:25:49.117Z,100499.34
2023-01-06T12:26:52.248Z,100486.16
2023-01-06T12:27:58.937Z,100481.53
2023-01-06T12:29:02.828Z,100482.72
2023-01-06T12:30:12.199Z,100462.53
2023-01-06T12:31:28.257Z,100482.72
2023-01-06T12:32:39.322Z,100469.56
2023-01-06T12:33:51.537Z,100492.44